Time;durP1;ratioP1;P1;durP2;ratioP2;P2;SDS_P1;SDS_P2;PMS_P1;PMS_P2;Temp;Humidity;BMP_temperature;BMP_pressure;BME280_temperature;BME280_humidity;BME280_pressure;Samples;Min_cycle;Max_cycle;Signal;HPM_P1;HPM_P2
2023/01/23 00:02:20;;;;;;;1.50;1.40;;;;;;;;;;5049788;28;20033;-77
2023/01/23 00:04:48;;;;;;;1.60;1.50;;;;;;;;;;5053917;28;20422;-78
2023/01/23 00:07:14;;;;;;;1.40;1.40;;;;;;;;;;5047353;28;20035;-78
2023/01/23 00:09:40;;;;;;;1.50;1.40;;;;;;;;;;5039462;28;20060;-78
2023/01/23 00:12:06;;;;;;;1.60;1.50;;;;;;;;;;5045582;28;20033;-78
2023/01/23 00:14:32;;;;;;;1.58;1.48;;;;;;;;;;5043392;28;20113;-77
2023/01/23 00:16:58;;;;;;;1.63;1.52;;;;;;;;;;5039010;28;20033;-78
2023/01/23 00:19:25;;;;;;;1.75;1.65;;;;;;;;;;5046437;28;20033;-79
2023/01/23 00:21:52;;;;;;;2.00;1.80;;;;;;;;;;5038913;28;20048;-78
2023/01/23 00:24:18;;;;;;;1.90;1.58;;;;;;;;;;5048629;28;20021;-78
2023/01/23 00:26:44;;;;;;;2.08;1.88;;;;;;;;;;5041632;28;20351;-78
2023/01/23 00:29:10;;;;;;;2.40;1.92;;;;;;;;;;5041562;28;20033;-78
2023/01/23 00:31:38;;;;;;;3.15;1.90;;;;;;;;;;5039233;28;20017;-78
2023/01/23 00:34:06;;;;;;;1.80;1.70;;;;;;;;;;5051570;28;20032;-78
2023/01/23 00:36:36;;;;;;;2.08;1.70;;;;;;;;;;5046708;28;20826;-78
2023/01/23 00:39:05;;;;;;;1.70;1.60;;;;;;;;;;5046990;28;20028;-78
2023/01/23 00:41:31;;;;;;;2.63;1.70;;;;;;;;;;5047101;28;20029;-78
2023/01/23 00:43:57;;;;;;;1.80;1.70;;;;;;;;;;5053939;28;20065;-77
2023/01/23 00:46:24;;;;;;;2.20;1.70;;;;;;;;;;5071581;28;20164;-79
2023/01/23 00:48:50;;;;;;;1.63;1.52;;;;;;;;;;5036747;28;20108;-78
2023/01/23 00:51:16;;;;;;;1.98;1.77;;;;;;;;;;5038459;28;20457;-79
2023/01/23 00:53:43;;;;;;;2.30;1.80;;;;;;;;;;5034019;28;20465;-78
2023/01/23 00:56:09;;;;;;;1.80;1.60;;;;;;;;;;5039278;28;20034;-78
2023/01/23 00:58:35;;;;;;;1.70;1.60;;;;;;;;;;5045629;28;20032;-79
2023/01/23 01:01:01;;;;;;;1.50;1.40;;;;;;;;;;5039916;28;20029;-79
2023/01/23 01:03:27;;;;;;;1.88;1.50;;;;;;;;;;5049188;28;20124;-78
2023/01/23 01:05:53;;;;;;;1.60;1.50;;;;;;;;;;5040598;28;20029;-77
2023/01/23 01:08:19;;;;;;;1.60;1.50;;;;;;;;;;5038816;28;20028;-78
2023/01/23 01:10:45;;;;;;;1.63;1.52;;;;;;;;;;5049261;28;20104;-78
2023/01/23 01:13:11;;;;;;;1.45;1.38;;;;;;;;;;5041191;28;20025;-79
2023/01/23 01:15:38;;;;;;;1.38;1.35;;;;;;;;;;5040691;28;20405;-79
2023/01/23 01:18:04;;;;;;;1.60;1.50;;;;;;;;;;5046773;28;20112;-77
2023/01/23 01:20:30;;;;;;;1.60;1.50;;;;;;;;;;5041087;28;20041;-77
2023/01/23 01:22:57;;;;;;;1.60;1.50;;;;;;;;;;5048474;28;20040;-78
2023/01/23 01:25:25;;;;;;;1.50;1.40;;;;;;;;;;5043693;28;20021;-78
2023/01/23 01:27:52;;;;;;;1.50;1.40;;;;;;;;;;5036414;28;20764;-78
2023/01/23 01:30:18;;;;;;;1.80;1.70;;;;;;;;;;5057829;28;20021;-78
2023/01/23 01:32:44;;;;;;;1.55;1.45;;;;;;;;;;5041563;28;20017;-77
2023/01/23 01:35:11;;;;;;;1.80;1.60;;;;;;;;;;5042831;28;20048;-79
2023/01/23 01:37:38;;;;;;;1.90;1.60;;;;;;;;;;5040592;28;20040;-78
2023/01/23 01:40:05;;;;;;;2.50;1.50;;;;;;;;;;5035941;28;20040;-79
2023/01/23 01:42:31;;;;;;;1.67;1.58;;;;;;;;;;5040066;28;20043;-78
2023/01/23 01:44:59;;;;;;;1.40;1.40;;;;;;;;;;5040672;28;20029;-78
2023/01/23 01:47:25;;;;;;;1.38;1.30;;;;;;;;;;5036157;28;20030;-78
2023/01/23 01:49:54;;;;;;;1.83;1.40;;;;;;;;;;5039082;28;20029;-78
2023/01/23 01:52:21;;;;;;;1.67;1.58;;;;;;;;;;5040593;28;20052;-78
2023/01/23 01:54:58;;;;;;;2.35;1.50;;;;;;;;;;5048222;28;20473;-78
2023/01/23 01:57:30;;;;;;;1.60;1.40;;;;;;;;;;5041596;28;20032;-78
2023/01/23 01:59:58;;;;;;;2.10;1.70;;;;;;;;;;5039217;28;20041;-78
2023/01/23 02:02:29;;;;;;;1.58;1.48;;;;;;;;;;5041141;28;20394;-78
2023/01/23 02:05:03;;;;;;;1.50;1.40;;;;;;;;;;5071788;28;20035;-78
2023/01/23 02:07:33;;;;;;;1.53;1.43;;;;;;;;;;5048001;28;20422;-78
2023/01/23 02:10:01;;;;;;;1.50;1.40;;;;;;;;;;5035150;28;20409;-79
2023/01/23 02:12:27;;;;;;;1.70;1.60;;;;;;;;;;5051432;28;20477;-78
2023/01/23 02:14:54;;;;;;;1.65;1.52;;;;;;;;;;5039375;28;20052;-79
2023/01/23 02:17:20;;;;;;;1.80;1.40;;;;;;;;;;5037849;28;20029;-78
2023/01/23 02:19:53;;;;;;;1.30;1.30;;;;;;;;;;5038612;28;20284;-78
2023/01/23 02:22:42;;;;;;;1.70;1.58;;;;;;;;;;5038664;28;20029;-78
2023/01/23 02:25:29;;;;;;;1.40;1.30;;;;;;;;;;5035537;28;20338;-78
2023/01/23 02:27:55;;;;;;;1.40;1.30;;;;;;;;;;5039665;28;20398;-79
2023/01/23 02:30:21;;;;;;;1.48;1.33;;;;;;;;;;5040709;28;20040;-78
2023/01/23 02:32:47;;;;;;;1.38;1.35;;;;;;;;;;5043870;28;20595;-77
2023/01/23 02:35:20;;;;;;;3.80;1.58;;;;;;;;;;5050165;28;20017;-78
2023/01/23 02:37:47;;;;;;;1.60;1.50;;;;;;;;;;5047427;28;20034;-78
2023/01/23 02:40:13;;;;;;;1.88;1.77;;;;;;;;;;5051952;28;20024;-78
2023/01/23 02:42:41;;;;;;;1.52;1.42;;;;;;;;;;5051254;28;20029;-77
2023/01/23 02:45:08;;;;;;;1.15;1.15;;;;;;;;;;5047458;28;20505;-78
2023/01/23 02:47:34;;;;;;;1.30;1.30;;;;;;;;;;5036682;28;20417;-77
2023/01/23 02:50:00;;;;;;;1.50;1.40;;;;;;;;;;5042601;28;20068;-77
2023/01/23 02:52:26;;;;;;;1.42;1.35;;;;;;;;;;5040040;28;20025;-78
2023/01/23 02:54:53;;;;;;;1.48;1.40;;;;;;;;;;5042612;28;20028;-78
2023/01/23 02:57:19;;;;;;;1.40;1.30;;;;;;;;;;5047767;28;20029;-78
2023/01/23 03:02:29;;;;;;;1.60;1.50;;;;;;;;;;5040009;28;20103;-78
2023/01/23 03:04:55;;;;;;;1.50;1.40;;;;;;;;;;5045013;28;20029;-78
2023/01/23 03:07:21;;;;;;;1.40;1.40;;;;;;;;;;5045391;28;20026;-78
2023/01/23 03:09:48;;;;;;;1.30;1.30;;;;;;;;;;5039539;28;20059;-78
2023/01/23 03:12:15;;;;;;;1.45;1.35;;;;;;;;;;5046325;28;20017;-78
2023/01/23 03:14:41;;;;;;;1.30;1.30;;;;;;;;;;5034247;28;20026;-78
2023/01/23 03:17:09;;;;;;;1.60;1.50;;;;;;;;;;5036111;28;20060;-78
2023/01/23 03:19:37;;;;;;;2.50;1.60;;;;;;;;;;5049874;28;20032;-78
2023/01/23 03:22:03;;;;;;;1.40;1.30;;;;;;;;;;5050248;28;20042;-78
2023/01/23 03:24:29;;;;;;;1.60;1.50;;;;;;;;;;5052239;28;20048;-78
2023/01/23 03:26:55;;;;;;;1.65;1.55;;;;;;;;;;5046966;28;20025;-78
2023/01/23 03:32:11;;;;;;;1.95;1.45;;;;;;;;;;5039642;28;20067;-78
2023/01/23 03:34:37;;;;;;;1.55;1.45;;;;;;;;;;5049841;28;20075;-79
2023/01/23 03:37:04;;;;;;;1.50;1.40;;;;;;;;;;5046250;28;20030;-78
2023/01/23 03:42:15;;;;;;;1.45;1.35;;;;;;;;;;5045108;28;20057;-79
2023/01/23 03:44:41;;;;;;;1.30;1.30;;;;;;;;;;5044295;28;20032;-78
2023/01/23 03:47:07;;;;;;;1.70;1.55;;;;;;;;;;5047383;28;21020;-78
2023/01/23 03:49:33;;;;;;;1.35;1.35;;;;;;;;;;5047700;28;20025;-77
2023/01/23 03:52:00;;;;;;;1.20;1.20;;;;;;;;;;5051544;28;20051;-77
2023/01/23 03:54:26;;;;;;;1.38;1.35;;;;;;;;;;5054057;28;20037;-78
2023/01/23 03:56:52;;;;;;;1.20;1.20;;;;;;;;;;5041649;28;20371;-78
2023/01/23 03:59:18;;;;;;;1.10;1.10;;;;;;;;;;5041682;28;20033;-78
2023/01/23 04:01:44;;;;;;;1.40;1.40;;;;;;;;;;5041945;28;20072;-78
2023/01/23 04:04:10;;;;;;;1.30;1.30;;;;;;;;;;5054478;28;20099;-78
2023/01/23 04:06:36;;;;;;;1.25;1.15;;;;;;;;;;5044037;28;20394;-78
2023/01/23 04:09:03;;;;;;;1.20;1.20;;;;;;;;;;5044457;28;20025;-77
2023/01/23 04:11:29;;;;;;;1.10;1.10;;;;;;;;;;5053258;28;20028;-77
2023/01/23 04:13:55;;;;;;;1.10;1.10;;;;;;;;;;5046871;28;20084;-77
2023/01/23 04:16:21;;;;;;;1.20;1.20;;;;;;;;;;5049431;28;21831;-78
2023/01/23 04:18:48;;;;;;;1.17;1.17;;;;;;;;;;5037422;28;20037;-78
2023/01/23 04:21:14;;;;;;;1.10;1.10;;;;;;;;;;5049236;28;20075;-78
2023/01/23 04:23:40;;;;;;;1.40;1.40;;;;;;;;;;5038812;28;20092;-78
2023/01/23 04:26:06;;;;;;;1.17;1.17;;;;;;;;;;5049543;28;20021;-78
2023/01/23 04:28:32;;;;;;;1.27;1.27;;;;;;;;;;5040743;28;20026;-78
2023/01/23 04:30:58;;;;;;;1.52;1.10;;;;;;;;;;5047762;28;20020;-78
2023/01/23 04:33:24;;;;;;;1.10;1.10;;;;;;;;;;5046694;28;20486;-77
2023/01/23 04:35:51;;;;;;;1.10;1.10;;;;;;;;;;5040885;28;20037;-78
2023/01/23 04:38:17;;;;;;;1.10;1.10;;;;;;;;;;5041181;28;20637;-79
2023/01/23 04:40:43;;;;;;;1.17;1.17;;;;;;;;;;5047725;28;20035;-78
2023/01/23 04:43:09;;;;;;;1.05;1.05;;;;;;;;;;5034563;28;20030;-77
2023/01/23 04:45:35;;;;;;;0.90;0.90;;;;;;;;;;5044753;28;20052;-77
2023/01/23 04:48:01;;;;;;;1.20;1.20;;;;;;;;;;5057480;28;20044;-78
2023/01/23 04:50:28;;;;;;;1.10;1.10;;;;;;;;;;5042979;28;20029;-78
2023/01/23 04:52:54;;;;;;;1.13;1.10;;;;;;;;;;5034452;28;20072;-79
2023/01/23 04:55:20;;;;;;;1.00;1.00;;;;;;;;;;5052063;28;20024;-78
2023/01/23 04:57:46;;;;;;;1.20;1.20;;;;;;;;;;5037801;28;20052;-78
2023/01/23 05:00:12;;;;;;;1.13;1.13;;;;;;;;;;5041996;28;20021;-78
2023/01/23 05:02:38;;;;;;;1.00;1.00;;;;;;;;;;5044177;28;20481;-77
2023/01/23 05:05:05;;;;;;;1.20;1.20;;;;;;;;;;5042410;28;20052;-78
2023/01/23 05:07:31;;;;;;;1.23;1.20;;;;;;;;;;5039091;28;20146;-78
2023/01/23 05:09:57;;;;;;;2.10;1.10;;;;;;;;;;5035504;28;20029;-79
2023/01/23 05:12:23;;;;;;;1.13;1.13;;;;;;;;;;5046029;28;20028;-78
2023/01/23 05:14:49;;;;;;;1.10;1.10;;;;;;;;;;5040842;28;20032;-78
2023/01/23 05:17:16;;;;;;;1.00;1.00;;;;;;;;;;5036311;28;20421;-78
2023/01/23 05:19:42;;;;;;;1.00;1.00;;;;;;;;;;5034634;28;20056;-78
2023/01/23 05:22:08;;;;;;;1.38;1.27;;;;;;;;;;5037120;28;20029;-78
2023/01/23 05:24:34;;;;;;;1.05;1.05;;;;;;;;;;5041081;28;20029;-77
2023/01/23 05:27:00;;;;;;;1.33;1.23;;;;;;;;;;5045115;28;20091;-78
2023/01/23 05:29:26;;;;;;;1.10;1.10;;;;;;;;;;5033395;28;20280;-78
2023/01/23 05:31:52;;;;;;;1.00;1.00;;;;;;;;;;5042300;28;20371;-78
2023/01/23 05:34:19;;;;;;;1.02;1.02;;;;;;;;;;5043612;28;21451;-77
2023/01/23 05:36:45;;;;;;;1.00;1.00;;;;;;;;;;5036586;28;20054;-78
2023/01/23 05:39:11;;;;;;;1.13;1.10;;;;;;;;;;5035880;28;20040;-78
2023/01/23 05:41:37;;;;;;;1.00;1.00;;;;;;;;;;5041347;28;20110;-78
2023/01/23 05:44:03;;;;;;;1.10;1.10;;;;;;;;;;5033206;28;20026;-78
2023/01/23 05:46:29;;;;;;;1.10;1.10;;;;;;;;;;5044029;28;20028;-78
2023/01/23 05:48:55;;;;;;;1.30;1.30;;;;;;;;;;5034540;28;20034;-78
2023/01/23 05:51:22;;;;;;;1.20;1.20;;;;;;;;;;5045412;28;20020;-78
2023/01/23 05:53:48;;;;;;;1.05;1.05;;;;;;;;;;5037874;28;20033;-78
2023/01/23 05:56:14;;;;;;;1.00;1.00;;;;;;;;;;5047038;28;20909;-78
2023/01/23 05:58:40;;;;;;;1.25;1.15;;;;;;;;;;5050351;28;20039;-78
2023/01/23 06:01:06;;;;;;;1.40;1.15;;;;;;;;;;5033100;28;20033;-78
2023/01/23 06:03:33;;;;;;;1.10;1.10;;;;;;;;;;5031977;28;20376;-78
2023/01/23 06:06:00;;;;;;;1.00;1.00;;;;;;;;;;5036485;28;20020;-77
2023/01/23 06:08:26;;;;;;;1.30;1.30;;;;;;;;;;5037657;28;20057;-78
2023/01/23 06:10:53;;;;;;;1.20;1.10;;;;;;;;;;5045729;28;20393;-78
2023/01/23 06:13:19;;;;;;;1.10;1.10;;;;;;;;;;5043732;28;20040;-78
2023/01/23 06:15:45;;;;;;;1.92;1.25;;;;;;;;;;5044607;28;20032;-79
2023/01/23 06:18:11;;;;;;;1.15;1.15;;;;;;;;;;5040875;28;20029;-78
2023/01/23 06:20:37;;;;;;;1.20;1.20;;;;;;;;;;5035467;28;20061;-78
2023/01/23 06:23:03;;;;;;;1.13;1.13;;;;;;;;;;5040745;28;20037;-79
2023/01/23 06:25:31;;;;;;;1.13;1.13;;;;;;;;;;5039576;28;20095;-78
2023/01/23 06:27:57;;;;;;;1.10;1.10;;;;;;;;;;5046953;28;20024;-78
2023/01/23 06:30:23;;;;;;;1.20;1.20;;;;;;;;;;5038707;28;20386;-78
2023/01/23 06:32:49;;;;;;;1.10;1.10;;;;;;;;;;5042416;28;20025;-78
2023/01/23 06:35:15;;;;;;;1.42;1.33;;;;;;;;;;5041926;28;20819;-78
2023/01/23 06:37:41;;;;;;;1.10;1.10;;;;;;;;;;5037854;28;20032;-78
2023/01/23 06:40:11;;;;;;;1.20;1.20;;;;;;;;;;5039298;28;20536;-78
2023/01/23 06:42:38;;;;;;;1.20;1.20;;;;;;;;;;5037554;28;20022;-78
2023/01/23 06:45:05;;;;;;;1.15;1.15;;;;;;;;;;5034153;28;20040;-78
2023/01/23 06:47:31;;;;;;;1.50;1.40;;;;;;;;;;5042548;28;20103;-78
2023/01/23 06:49:57;;;;;;;1.10;1.10;;;;;;;;;;5037893;28;20009;-77
2023/01/23 06:52:23;;;;;;;1.45;1.35;;;;;;;;;;5037720;28;20080;-78
2023/01/23 06:54:50;;;;;;;1.10;1.10;;;;;;;;;;5037418;28;20025;-78
2023/01/23 06:57:16;;;;;;;1.20;1.20;;;;;;;;;;5037242;28;20504;-78
2023/01/23 06:59:42;;;;;;;1.25;1.25;;;;;;;;;;5041266;28;20018;-79
2023/01/23 07:02:10;;;;;;;1.20;1.20;;;;;;;;;;5036567;28;20056;-76
2023/01/23 07:04:36;;;;;;;1.30;1.30;;;;;;;;;;5035581;28;20467;-77
2023/01/23 07:07:02;;;;;;;1.17;1.17;;;;;;;;;;5039528;28;20021;-78
2023/01/23 07:09:28;;;;;;;0.90;0.90;;;;;;;;;;5035428;28;20038;-77
2023/01/23 07:11:54;;;;;;;1.23;1.20;;;;;;;;;;5035821;28;20155;-78
2023/01/23 07:14:20;;;;;;;1.38;1.38;;;;;;;;;;5040952;28;20045;-78
2023/01/23 07:16:47;;;;;;;1.20;1.20;;;;;;;;;;5034457;28;20029;-79
2023/01/23 07:19:13;;;;;;;1.42;1.33;;;;;;;;;;5042906;28;20116;-78
2023/01/23 07:21:39;;;;;;;1.45;1.33;;;;;;;;;;5037001;28;20516;-78
2023/01/23 07:24:05;;;;;;;1.42;1.33;;;;;;;;;;5039993;28;20030;-77
2023/01/23 07:26:31;;;;;;;1.10;1.10;;;;;;;;;;5043009;28;20030;-78
2023/01/23 07:28:58;;;;;;;1.45;1.38;;;;;;;;;;5044100;28;20021;-77
2023/01/23 07:31:24;;;;;;;1.40;1.30;;;;;;;;;;5036321;28;20090;-79
2023/01/23 07:33:50;;;;;;;1.50;1.40;;;;;;;;;;5042744;28;20044;-78
2023/01/23 07:36:17;;;;;;;1.50;1.40;;;;;;;;;;5035739;28;20045;-78
2023/01/23 07:38:44;;;;;;;1.27;1.27;;;;;;;;;;5039004;28;20136;-78
2023/01/23 07:41:10;;;;;;;1.40;1.30;;;;;;;;;;5045949;28;20034;-77
2023/01/23 07:43:36;;;;;;;1.40;1.38;;;;;;;;;;5048315;28;20458;-78
2023/01/23 07:46:02;;;;;;;1.23;1.23;;;;;;;;;;5034439;28;20109;-77
2023/01/23 07:48:28;;;;;;;1.50;1.40;;;;;;;;;;5039634;28;20033;-79
2023/01/23 07:50:55;;;;;;;1.50;1.40;;;;;;;;;;5037809;28;20021;-78
2023/01/23 07:53:21;;;;;;;1.40;1.30;;;;;;;;;;5038702;28;20037;-78
2023/01/23 07:55:47;;;;;;;1.40;1.30;;;;;;;;;;5034840;28;20029;-77
2023/01/23 07:58:13;;;;;;;1.20;1.20;;;;;;;;;;5038138;28;20696;-78
2023/01/23 08:00:40;;;;;;;1.48;1.30;;;;;;;;;;5043369;28;20033;-78
2023/01/23 08:03:06;;;;;;;1.33;1.20;;;;;;;;;;5037167;28;20533;-78
2023/01/23 08:05:32;;;;;;;1.35;1.25;;;;;;;;;;5043194;28;20033;-78
2023/01/23 08:07:58;;;;;;;1.42;1.33;;;;;;;;;;5050652;28;20036;-78
2023/01/23 08:10:24;;;;;;;1.30;1.30;;;;;;;;;;5040337;28;20021;-78
2023/01/23 08:12:51;;;;;;;1.10;1.10;;;;;;;;;;5038714;28;20049;-79
2023/01/23 08:15:17;;;;;;;1.10;1.10;;;;;;;;;;5049958;28;20072;-78
2023/01/23 08:17:43;;;;;;;1.30;1.27;;;;;;;;;;5044109;28;20036;-78
2023/01/23 08:20:09;;;;;;;1.20;1.20;;;;;;;;;;5044165;28;20369;-78
2023/01/23 08:22:39;;;;;;;1.48;1.38;;;;;;;;;;5045320;28;20059;-78
2023/01/23 08:25:06;;;;;;;1.40;1.30;;;;;;;;;;5043979;28;20013;-79
2023/01/23 08:27:32;;;;;;;1.50;1.40;;;;;;;;;;5044844;28;20494;-78
2023/01/23 08:29:58;;;;;;;3.03;1.50;;;;;;;;;;5041073;28;20079;-78
2023/01/23 08:32:24;;;;;;;1.45;1.35;;;;;;;;;;5037139;28;20026;-78
2023/01/23 08:34:50;;;;;;;1.80;1.35;;;;;;;;;;5038787;28;20540;-78
2023/01/23 08:37:16;;;;;;;1.40;1.35;;;;;;;;;;5033983;28;20036;-78
2023/01/23 08:39:42;;;;;;;1.30;1.30;;;;;;;;;;5040952;28;20029;-78
2023/01/23 08:42:09;;;;;;;1.48;1.38;;;;;;;;;;5042232;28;20033;-78
2023/01/23 08:44:35;;;;;;;1.70;1.60;;;;;;;;;;5051595;28;20030;-79
2023/01/23 08:47:05;;;;;;;1.50;1.40;;;;;;;;;;5037995;28;20088;-78
2023/01/23 08:49:31;;;;;;;1.58;1.48;;;;;;;;;;5036372;28;20037;-78
2023/01/23 08:51:58;;;;;;;1.77;1.67;;;;;;;;;;5046531;28;20108;-74
2023/01/23 08:54:25;;;;;;;1.50;1.40;;;;;;;;;;5034584;28;20039;-77
2023/01/23 08:56:51;;;;;;;2.03;1.30;;;;;;;;;;5038731;28;20108;-77
2023/01/23 08:59:17;;;;;;;1.58;1.48;;;;;;;;;;5040395;28;20084;-77
2023/01/23 09:01:45;;;;;;;1.55;1.45;;;;;;;;;;5039742;28;20279;-77
2023/01/23 09:04:11;;;;;;;1.92;1.70;;;;;;;;;;5039835;28;20037;-76
2023/01/23 09:06:37;;;;;;;1.88;1.67;;;;;;;;;;5037848;28;20120;-77
2023/01/23 09:09:03;;;;;;;2.17;1.63;;;;;;;;;;5041668;28;20030;-76
2023/01/23 09:11:29;;;;;;;1.52;1.42;;;;;;;;;;5045331;28;20478;-77
2023/01/23 09:13:56;;;;;;;1.73;1.60;;;;;;;;;;5035105;28;20064;-77
2023/01/23 09:16:22;;;;;;;1.50;1.40;;;;;;;;;;5035397;28;20029;-77
2023/01/23 09:18:48;;;;;;;1.52;1.40;;;;;;;;;;5039155;28;20024;-77
2023/01/23 09:21:15;;;;;;;1.83;1.65;;;;;;;;;;5039151;28;20101;-77
2023/01/23 09:23:41;;;;;;;1.70;1.60;;;;;;;;;;5041514;28;20029;-76
2023/01/23 09:26:10;;;;;;;2.13;1.67;;;;;;;;;;5044225;28;20112;-76
2023/01/23 09:28:36;;;;;;;1.90;1.60;;;;;;;;;;5036771;28;20065;-77
2023/01/23 09:31:03;;;;;;;2.30;1.63;;;;;;;;;;5047614;28;20032;-77
2023/01/23 09:33:30;;;;;;;1.92;1.70;;;;;;;;;;5037397;28;20030;-77
2023/01/23 09:35:56;;;;;;;1.95;1.60;;;;;;;;;;5039261;28;20126;-77
2023/01/23 09:38:22;;;;;;;2.17;1.70;;;;;;;;;;5043347;28;20027;-77
2023/01/23 09:40:50;;;;;;;1.92;1.77;;;;;;;;;;5042528;28;20123;-77
2023/01/23 09:43:22;;;;;;;2.45;1.90;;;;;;;;;;5047338;28;20458;-77
2023/01/23 09:46:11;;;;;;;2.38;2.03;;;;;;;;;;5040243;28;20099;-77
2023/01/23 09:48:45;;;;;;;3.17;1.92;;;;;;;;;;5036287;28;20047;-76
2023/01/23 09:51:14;;;;;;;2.10;1.90;;;;;;;;;;5037495;28;20049;-76
2023/01/23 09:53:41;;;;;;;2.10;1.90;;;;;;;;;;5039619;28;20489;-77
2023/01/23 09:56:22;;;;;;;1.90;1.75;;;;;;;;;;5048103;28;20029;-77
2023/01/23 09:58:58;;;;;;;2.22;1.92;;;;;;;;;;5036861;28;20037;-77
2023/01/23 10:01:26;;;;;;;2.50;2.10;;;;;;;;;;5039392;28;20033;-77
2023/01/23 10:03:52;;;;;;;2.53;1.80;;;;;;;;;;5030707;28;20108;-77
2023/01/23 10:06:26;;;;;;;2.67;2.00;;;;;;;;;;5041443;28;20051;-77
2023/01/23 10:09:07;;;;;;;3.75;2.00;;;;;;;;;;5044401;28;20056;-77
2023/01/23 10:11:54;;;;;;;2.90;2.03;;;;;;;;;;5039124;28;20079;-77
2023/01/23 10:14:32;;;;;;;3.30;2.20;;;;;;;;;;5038683;28;20037;-77
2023/01/23 10:16:58;;;;;;;2.45;2.25;;;;;;;;;;5033283;28;20092;-77
2023/01/23 10:19:35;;;;;;;4.15;2.70;;;;;;;;;;5043694;28;20142;-77
2023/01/23 10:22:07;;;;;;;2.85;2.17;;;;;;;;;;5038785;28;20098;-78
2023/01/23 10:24:50;;;;;;;3.03;2.35;;;;;;;;;;5033957;28;20913;-77
2023/01/23 10:27:25;;;;;;;2.30;2.10;;;;;;;;;;5047186;28;20024;-77
2023/01/23 10:30:01;;;;;;;4.07;2.33;;;;;;;;;;5039537;28;20025;-77
2023/01/23 10:32:29;;;;;;;2.35;2.10;;;;;;;;;;5036335;28;20057;-77
2023/01/23 10:35:01;;;;;;;2.40;2.20;;;;;;;;;;5030987;28;20064;-77
2023/01/23 10:37:31;;;;;;;2.40;2.20;;;;;;;;;;5029462;28;20029;-77
2023/01/23 10:40:02;;;;;;;3.00;2.30;;;;;;;;;;5028594;28;20040;-77
2023/01/23 10:42:29;;;;;;;2.50;2.25;;;;;;;;;;5031863;28;20632;-77
2023/01/23 10:44:55;;;;;;;3.00;2.40;;;;;;;;;;5034258;28;20034;-77
2023/01/23 10:47:25;;;;;;;2.72;2.30;;;;;;;;;;5031761;28;20111;-77
2023/01/23 10:49:51;;;;;;;3.13;2.60;;;;;;;;;;5044108;28;20024;-76
2023/01/23 10:52:34;;;;;;;3.92;2.50;;;;;;;;;;5037807;28;20061;-78
2023/01/23 10:55:00;;;;;;;3.78;2.42;;;;;;;;;;5043744;28;20138;-77
2023/01/23 10:57:29;;;;;;;4.15;2.67;;;;;;;;;;5043624;28;20025;-77
2023/01/23 11:00:00;;;;;;;2.47;2.28;;;;;;;;;;5038233;28;20898;-77
2023/01/23 11:02:29;;;;;;;3.83;2.85;;;;;;;;;;5042499;28;20057;-77
2023/01/23 11:04:55;;;;;;;4.05;2.70;;;;;;;;;;5036601;28;20064;-78
2023/01/23 11:07:23;;;;;;;2.90;2.50;;;;;;;;;;5027611;28;20029;-76
2023/01/23 11:09:49;;;;;;;2.88;2.50;;;;;;;;;;5030143;28;20020;-77
2023/01/23 11:12:17;;;;;;;3.40;2.45;;;;;;;;;;5038615;28;20029;-77
2023/01/23 11:14:43;;;;;;;3.05;2.60;;;;;;;;;;5043925;28;20029;-77
2023/01/23 11:17:35;;;;;;;3.00;2.50;;;;;;;;;;5031520;28;20041;-77
2023/01/23 11:20:10;;;;;;;3.22;2.70;;;;;;;;;;5026552;28;20092;-77
2023/01/23 11:22:37;;;;;;;3.25;2.60;;;;;;;;;;5043793;28;20112;-76
2023/01/23 11:25:22;;;;;;;2.88;2.30;;;;;;;;;;5025891;28;20033;-77
2023/01/23 11:27:55;;;;;;;2.75;2.38;;;;;;;;;;5044426;28;20116;-77
2023/01/23 11:30:21;;;;;;;3.40;2.50;;;;;;;;;;5043757;28;20145;-77
2023/01/23 11:32:48;;;;;;;4.05;2.80;;;;;;;;;;5041876;28;20030;-76
2023/01/23 11:35:23;;;;;;;2.88;2.60;;;;;;;;;;5044702;28;20041;-77
2023/01/23 11:37:50;;;;;;;3.33;2.50;;;;;;;;;;5048501;28;20033;-76
2023/01/23 11:40:17;;;;;;;3.53;2.65;;;;;;;;;;5038516;28;20486;-77
2023/01/23 11:42:44;;;;;;;3.92;2.70;;;;;;;;;;5051510;28;20033;-77
2023/01/23 11:45:13;;;;;;;2.58;2.30;;;;;;;;;;5048044;28;20143;-77
2023/01/23 11:47:39;;;;;;;2.70;2.50;;;;;;;;;;5044827;28;20017;-77
2023/01/23 11:50:10;;;;;;;4.03;2.58;;;;;;;;;;5040148;28;20029;-77
2023/01/23 11:52:48;;;;;;;2.60;2.30;;;;;;;;;;5040722;28;20021;-78
2023/01/23 11:55:21;;;;;;;2.60;2.40;;;;;;;;;;5038997;28;20079;-77
2023/01/23 11:57:50;;;;;;;2.95;2.70;;;;;;;;;;5045874;28;20034;-77
2023/01/23 12:00:16;;;;;;;3.15;2.50;;;;;;;;;;5034850;28;20025;-77
2023/01/23 12:02:56;;;;;;;3.83;2.75;;;;;;;;;;5038123;28;20037;-75
2023/01/23 12:05:28;;;;;;;3.00;2.55;;;;;;;;;;5041870;28;20058;-77
2023/01/23 12:08:10;;;;;;;2.45;2.20;;;;;;;;;;5038972;28;20022;-76
2023/01/23 12:10:42;;;;;;;3.13;2.45;;;;;;;;;;5035736;28;20082;-76
2023/01/23 12:13:34;;;;;;;2.70;2.50;;;;;;;;;;5042166;28;20497;-76
2023/01/23 12:16:10;;;;;;;2.38;2.00;;;;;;;;;;5036547;28;20029;-77
2023/01/23 12:18:47;;;;;;;3.40;2.67;;;;;;;;;;5043211;28;20756;-77
2023/01/23 12:21:20;;;;;;;2.83;2.22;;;;;;;;;;5045798;28;20045;-77
2023/01/23 12:24:04;;;;;;;3.53;2.20;;;;;;;;;;5037646;28;20082;-77
2023/01/23 12:26:31;;;;;;;2.22;2.03;;;;;;;;;;5038519;28;20052;-78
2023/01/23 12:29:11;;;;;;;2.75;2.50;;;;;;;;;;5048547;28;20090;-77
2023/01/23 12:32:01;;;;;;;2.25;2.00;;;;;;;;;;5035512;28;20443;-84
2023/01/23 12:34:51;;;;;;;3.03;2.00;;;;;;;;;;5041904;28;20853;-77
2023/01/23 12:37:42;;;;;;;2.60;1.85;;;;;;;;;;5044441;28;20073;-78
2023/01/23 12:40:28;;;;;;;2.55;2.08;;;;;;;;;;5042866;28;20029;-77
2023/01/23 12:43:01;;;;;;;2.03;1.80;;;;;;;;;;5034306;28;20040;-77
2023/01/23 12:45:27;;;;;;;2.17;1.80;;;;;;;;;;5043620;28;20488;-77
2023/01/23 12:48:10;;;;;;;2.28;1.90;;;;;;;;;;5041995;28;20036;-77
2023/01/23 12:50:36;;;;;;;4.05;2.00;;;;;;;;;;5041919;28;20064;-77
2023/01/23 12:53:11;;;;;;;2.88;1.98;;;;;;;;;;5040432;28;20489;-77
2023/01/23 12:55:43;;;;;;;2.42;1.92;;;;;;;;;;5035900;28;20143;-77
2023/01/23 12:58:13;;;;;;;4.20;2.85;;;;;;;;;;5045473;28;20109;-77
2023/01/23 13:00:51;;;;;;;2.85;2.10;;;;;;;;;;5033889;28;20113;-77
2023/01/23 13:03:26;;;;;;;2.20;2.00;;;;;;;;;;5036281;28;20033;-77
2023/01/23 13:06:04;;;;;;;2.60;1.98;;;;;;;;;;5043770;28;20033;-77
2023/01/23 13:08:36;;;;;;;2.42;2.00;;;;;;;;;;5038216;28;20029;-77
2023/01/23 13:11:39;;;;;;;1.80;1.70;;;;;;;;;;5033919;28;20367;-77
2023/01/23 13:14:24;;;;;;;3.17;2.17;;;;;;;;;;5034445;28;20044;-77
2023/01/23 13:16:51;;;;;;;2.50;2.25;;;;;;;;;;5032358;28;20025;-77
2023/01/23 13:22:26;;;;;;;4.72;2.25;;;;;;;;;;5039658;28;20525;-77
2023/01/23 13:27:37;;;;;;;2.42;1.88;;;;;;;;;;5041954;28;20043;-77
2023/01/23 13:30:39;;;;;;;1.90;1.70;;;;;;;;;;5043202;28;20029;-77
2023/01/23 13:33:06;;;;;;;2.35;1.70;;;;;;;;;;5039268;28;20018;-77
2023/01/23 13:35:43;;;;;;;3.53;1.88;;;;;;;;;;5039993;28;20033;-77
2023/01/23 13:38:31;;;;;;;3.75;2.22;;;;;;;;;;5039640;28;20031;-76
2023/01/23 13:41:17;;;;;;;2.17;2.00;;;;;;;;;;5032810;28;20029;-76
2023/01/23 13:43:51;;;;;;;4.65;2.13;;;;;;;;;;5037310;28;20097;-77
2023/01/23 13:46:29;;;;;;;2.67;2.03;;;;;;;;;;5037624;28;20029;-76
2023/01/23 13:51:49;;;;;;;3.40;2.50;;;;;;;;;;5031915;28;20048;-76
2023/01/23 13:57:09;;;;;;;5.07;3.80;;;;;;;;;;5030916;28;20402;-76
2023/01/23 13:59:38;;;;;;;5.35;3.20;;;;;;;;;;5033381;28;20037;-76
2023/01/23 14:05:15;;;;;;;3.25;2.60;;;;;;;;;;5032344;28;20036;-77
2023/01/23 14:07:42;;;;;;;5.22;2.90;;;;;;;;;;5041115;28;20053;-77
2023/01/23 14:10:28;;;;;;;4.15;3.30;;;;;;;;;;5040382;28;20033;-77
2023/01/23 14:13:01;;;;;;;4.72;3.40;;;;;;;;;;5037012;28;20705;-76
2023/01/23 14:18:33;;;;;;;4.55;2.78;;;;;;;;;;5043364;28;20040;-81
2023/01/23 14:21:00;;;;;;;6.25;3.40;;;;;;;;;;5042842;28;20099;-77
2023/01/23 14:23:32;;;;;;;6.18;4.50;;;;;;;;;;5032086;28;20060;-76
2023/01/23 14:25:58;;;;;;;4.55;3.40;;;;;;;;;;5041288;28;20018;-76
2023/01/23 14:28:26;;;;;;;4.45;2.70;;;;;;;;;;5047213;28;20154;-76
2023/01/23 14:30:56;;;;;;;7.18;3.05;;;;;;;;;;5042939;28;20014;-76
2023/01/23 14:33:23;;;;;;;6.05;2.80;;;;;;;;;;5034708;28;20406;-76
2023/01/23 14:35:49;;;;;;;9.00;4.10;;;;;;;;;;5032939;28;20060;-76
2023/01/23 14:38:29;;;;;;;7.70;4.15;;;;;;;;;;5040050;28;20078;-76
2023/01/23 14:40:55;;;;;;;9.35;3.40;;;;;;;;;;5032246;28;20394;-76
2023/01/23 14:43:26;;;;;;;6.18;3.22;;;;;;;;;;5031743;28;20496;-76
2023/01/23 14:46:04;;;;;;;4.93;2.53;;;;;;;;;;5034219;28;20021;-77
2023/01/23 14:48:33;;;;;;;3.92;2.70;;;;;;;;;;5032546;28;20113;-76
2023/01/23 14:51:07;;;;;;;5.32;3.13;;;;;;;;;;5025483;28;20025;-76
2023/01/23 14:53:33;;;;;;;6.22;2.58;;;;;;;;;;5029526;28;20111;-75
2023/01/23 14:56:00;;;;;;;4.95;2.65;;;;;;;;;;5040240;28;20022;-76
2023/01/23 14:58:27;;;;;;;3.92;2.50;;;;;;;;;;5034757;28;20025;-76
2023/01/23 15:00:54;;;;;;;5.75;4.35;;;;;;;;;;5028305;28;20033;-75
2023/01/23 15:03:36;;;;;;;5.05;3.20;;;;;;;;;;5044506;28;20048;-76
2023/01/23 15:06:05;;;;;;;5.45;3.22;;;;;;;;;;5041462;28;20029;-76
2023/01/23 15:08:32;;;;;;;7.18;3.60;;;;;;;;;;5028013;28;20019;-76
2023/01/23 15:11:00;;;;;;;7.43;4.28;;;;;;;;;;5036096;28;20127;-77
2023/01/23 15:13:34;;;;;;;5.13;3.60;;;;;;;;;;5036326;28;20029;-77
2023/01/23 15:16:02;;;;;;;6.45;4.10;;;;;;;;;;5034494;28;20032;-77
2023/01/23 15:18:33;;;;;;;7.45;3.92;;;;;;;;;;5036876;28;20033;-77
2023/01/23 15:21:04;;;;;;;6.55;4.65;;;;;;;;;;5035820;28;20045;-77